Home > Products > Valid Products > TAF

000
FTUS45 KPSR 120520
TAFIPL
TAF
KIPL 120520Z 1206/1306 27005KT P6SM SKC
     FM121800 32004KT P6SM FEW250
     FM130300 27004KT P6SM SKC=



000
FTUS45 KPSR 120520
TAFIWA
TAF
KIWA 120520Z 1206/1306 12005KT P6SM SKC
     FM122100 28004KT P6SM FEW250
     FM130400 11004KT P6SM FEW250
      AMD LTD TO CLD VIS AND WIND TIL 121300=



000
FTUS45 KPSR 120520
TAFPHX
TAF
KPHX 120520Z 1206/1306 10005KT P6SM SKC
     FM122200 27004KT P6SM FEW250
     FM130400 11004KT P6SM FEW250=



000
FTUS45 KPSR 120520
TAFBLH
TAF
KBLH 120520Z 1206/1306 34006KT P6SM SKC
     FM121800 VRB04KT P6SM FEW250
     FM130300 34005KT P6SM SKC=



000
FTUS45 KPSR 120237 AAA
TAFPHX
TAF AMD
KPHX 120237Z 1203/1224 29004KT P6SM SKC
     FM120600 10005KT P6SM SKC
     FM122200 27004KT P6SM FEW250=



000
FTUS45 KPSR 120237 AAA
TAFPHX
TAF AMD
KPHX 120237Z 1203/1224 29004KT P6SM SKC
     FM120600 10005KT P6SM SKC
     FM122200 27004KT P6SM FEW250=



000
FTUS45 KPSR 112324
TAFIWA
TAF
KIWA 112324Z 1200/1224 25006KT P6SM SKC
     FM120400 12005KT P6SM SKC
     FM122100 28004KT P6SM FEW250
      AMD LTD TO CLD VIS AND WIND 1203/1213=



000
FTUS45 KPSR 112324
TAFIPL
TAF
KIPL 112324Z 1200/1224 VRB04KT P6SM SKC
     FM120300 26005KT P6SM SKC
     FM121800 32004KT P6SM FEW250=



000
FTUS45 KPSR 112324
TAFBLH
TAF
KBLH 112324Z 1200/1224 03005KT P6SM SKC
     FM120200 30004KT P6SM SKC
     FM121800 VRB04KT P6SM FEW250=



000
FTUS45 KPSR 112324
TAFIPL
TAF
KIPL 112324Z 1200/1224 VRB04KT P6SM SKC
     FM120300 26005KT P6SM SKC
     FM121800 32004KT P6SM FEW250=



000
FTUS45 KPSR 112324
TAFPHX
TAF
KPHX 112324Z 1200/1224 26006KT P6SM SKC
     FM120600 10005KT P6SM SKC
     FM122200 27004KT P6SM FEW250=



000
FTUS45 KPSR 112324
TAFBLH
TAF
KBLH 112324Z 1200/1224 03005KT P6SM SKC
     FM120200 30004KT P6SM SKC
     FM121800 VRB04KT P6SM FEW250=



000
FTUS45 KPSR 112324
TAFIWA
TAF
KIWA 112324Z 1200/1224 25006KT P6SM SKC
     FM120400 12005KT P6SM SKC
     FM122100 28004KT P6SM FEW250
      AMD LTD TO CLD VIS AND WIND 1203/1213=



000
FTUS45 KPSR 112324
TAFPHX
TAF
KPHX 112324Z 1200/1224 26006KT P6SM SKC
     FM120600 10005KT P6SM SKC
     FM122200 27004KT P6SM FEW250=



000
FTUS45 KPSR 112324
TAFIWA
TAF
KIWA 112324Z 1200/1224 25006KT P6SM SKC
     FM120400 12005KT P6SM SKC
     FM122100 28004KT P6SM FEW250
      AMD LTD TO CLD VIS AND WIND 1203/1213=



000
FTUS45 KPSR 112043 AAA
TAFPHX
TAF AMD
KPHX 112043Z 1121/1218 26006KT P6SM SKC
      TEMPO 1121/1123 14005KT
     FM120600 10005KT P6SM SKC=



000
FTUS45 KPSR 111721
TAFIWA
TAF
KIWA 111721Z 1118/1218 25006KT P6SM SKC
     FM120400 12005KT P6SM SKC=



000
FTUS45 KPSR 111721
TAFPHX
TAF
KPHX 111721Z 1118/1218 10005KT P6SM SKC
     FM112100 26006KT P6SM SKC
     FM120600 10005KT P6SM SKC=



000
FTUS45 KPSR 111721
TAFBLH
TAF
KBLH 111721Z 1118/1218 03005KT P6SM SKC
     FM120200 30004KT P6SM SKC=



000
FTUS45 KPSR 111721
TAFPHX
TAF
KPHX 111721Z 1118/1218 10005KT P6SM SKC
     FM112100 26006KT P6SM SKC
     FM120600 10005KT P6SM SKC=



000
FTUS45 KPSR 111721
TAFIWA
TAF
KIWA 111721Z 1118/1218 25006KT P6SM SKC
     FM120400 12005KT P6SM SKC=



000
FTUS45 KPSR 111721
TAFIPL
TAF
KIPL 111721Z 1118/1218 28005KT P6SM SKC
     FM120100 01004KT P6SM SKC
     FM120500 26005KT P6SM SKC=



000
FTUS45 KPSR 111437 AAA
TAFPHX
TAF AMD
KPHX 111437Z 1115/1212 10005KT P6SM FEW250
      TEMPO 1115/1117 12008G16KT
     FM112200 26005KT P6SM FEW250
     FM120600 10005KT P6SM SKC=



000
FTUS45 KPSR 111140
TAFIPL
TAF
KIPL 111140Z 1112/1212 28005KT P6SM SKC
     FM112100 34004KT P6SM SKC
     FM120200 26005KT P6SM SKC=



000
FTUS45 KPSR 111140
TAFBLH
TAF
KBLH 111140Z 1112/1212 25004KT P6SM SKC
     FM111900 35005KT P6SM SKC
     FM120400 29004KT P6SM SKC=



000
FTUS45 KPSR 111140
TAFPHX
TAF
KPHX 111140Z 1112/1212 10005KT P6SM FEW250
     FM112200 26005KT P6SM FEW250
     FM120600 10005KT P6SM SKC=



000
FTUS45 KPSR 111140
TAFIWA
TAF
KIWA 111140Z 1112/1212 11007KT P6SM FEW250
     FM112100 29004KT P6SM FEW250
     FM120300 12006KT P6SM SKC
      AMD LTD TO CLD VIS AND WIND TIL 111300=



000
FTUS45 KPSR 111140
TAFIWA
TAF
KIWA 111140Z 1112/1212 11007KT P6SM FEW250
     FM112100 29004KT P6SM FEW250
     FM120300 12006KT P6SM SKC
      AMD LTD TO CLD VIS AND WIND TIL 111300=



000
FTUS45 KPSR 111140
TAFIWA
TAF
KIWA 111140Z 1112/1212 11007KT P6SM FEW250
     FM112100 29004KT P6SM FEW250
     FM120300 12006KT P6SM SKC
      AMD LTD TO CLD VIS AND WIND TIL 111300=



000
FTUS45 KPSR 111140
TAFBLH
TAF
KBLH 111140Z 1112/1212 25004KT P6SM SKC
     FM111900 35005KT P6SM SKC
     FM120400 29004KT P6SM SKC=



000
FTUS45 KPSR 111140
TAFPHX
TAF
KPHX 111140Z 1112/1212 10005KT P6SM FEW250
     FM112200 26005KT P6SM FEW250
     FM120600 10005KT P6SM SKC=



000
FTUS45 KPSR 111140
TAFIPL
TAF
KIPL 111140Z 1112/1212 28005KT P6SM SKC
     FM112100 34004KT P6SM SKC
     FM120200 26005KT P6SM SKC=



000
FTUS45 KPSR 110902 AAA
TAFPHX
TAF AMD
KPHX 110902Z 1109/1206 10005KT P6SM FEW250
     FM112200 26005KT P6SM FEW250
     FM120400 VRB03KT P6SM SKC=



000
FTUS45 KPSR 110520
TAFBLH
TAF
KBLH 110520Z 1106/1206 35005KT P6SM FEW250
     FM110900 30004KT P6SM SKC
     FM120300 35005KT P6SM SKC=



000
FTUS45 KPSR 110520
TAFPHX
TAF
KPHX 110520Z 1106/1206 10005KT P6SM SCT250
     FM112200 26005KT P6SM FEW250
     FM120400 VRB03KT P6SM SKC=



000
FTUS45 KPSR 110520
TAFIWA
TAF
KIWA 110520Z 1106/1206 12005KT P6SM SCT250
     FM112100 29004KT P6SM FEW250
     FM120300 12005KT P6SM SKC
      AMD LTD TO CLD VIS AND WIND TIL 111300=



000
FTUS45 KPSR 110520
TAFIPL
TAF
KIPL 110520Z 1106/1206 28005KT P6SM SCT250
     FM112100 34003KT P6SM SKC=



000
FTUS45 KPSR 110520
TAFIPL
TAF
KIPL 110520Z 1106/1206 28005KT P6SM SCT250
     FM112100 34003KT P6SM SKC=



000
FTUS45 KPSR 110520
TAFPHX
TAF
KPHX 110520Z 1106/1206 10005KT P6SM SCT250
     FM112200 26005KT P6SM FEW250
     FM120400 VRB03KT P6SM SKC=



000
FTUS45 KPSR 110520
TAFIWA
TAF
KIWA 110520Z 1106/1206 12005KT P6SM SCT250
     FM112100 29004KT P6SM FEW250
     FM120300 12005KT P6SM SKC
      AMD LTD TO CLD VIS AND WIND TIL 111300=



000
FTUS45 KPSR 110520
TAFBLH
TAF
KBLH 110520Z 1106/1206 35005KT P6SM FEW250
     FM110900 30004KT P6SM SKC
     FM120300 35005KT P6SM SKC=



000
FTUS45 KPSR 110520
TAFIWA
TAF
KIWA 110520Z 1106/1206 12005KT P6SM SCT250
     FM112100 29004KT P6SM FEW250
     FM120300 12005KT P6SM SKC
      AMD LTD TO CLD VIS AND WIND TIL 111300=



000
FTUS45 KPSR 110250 AAA
TAFPHX
TAF AMD
KPHX 110250Z 1103/1124 30005KT P6SM BKN250
     FM110500 08005KT P6SM SCT250
     FM112200 26005KT P6SM FEW250=



000
FTUS45 KPSR 110250 AAA
TAFPHX
TAF AMD
KPHX 110250Z 1103/1124 30005KT P6SM BKN250
     FM110500 08005KT P6SM SCT250
     FM112200 26005KT P6SM FEW250=



000
FTUS45 KPSR 102321
TAFIWA
TAF
KIWA 102321Z 1100/1124 28004KT P6SM BKN250
     FM110400 12005KT P6SM SKC
     FM112100 29004KT P6SM FEW250
      AMD LTD TO CLD VIS AND WIND 1103/1113=



000
FTUS45 KPSR 102321
TAFPHX
TAF
KPHX 102321Z 1100/1124 29005KT P6SM BKN250
     FM110500 08005KT P6SM SCT250
     FM112200 26005KT P6SM FEW250=



000
FTUS45 KPSR 102321
TAFIPL
TAF
KIPL 102321Z 1100/1124 28005KT P6SM SCT250=



000
FTUS45 KPSR 102321
TAFBLH
TAF
KBLH 102321Z 1100/1124 35005KT P6SM FEW250
     FM110900 30004KT P6SM SKC=



000
FTUS45 KPSR 102321
TAFPHX
TAF
KPHX 102321Z 1100/1124 29005KT P6SM BKN250
     FM110500 08005KT P6SM SCT250
     FM112200 26005KT P6SM FEW250=



000
FTUS45 KPSR 102321
TAFIPL
TAF
KIPL 102321Z 1100/1124 28005KT P6SM SCT250=



000
FTUS45 KPSR 102321
TAFIWA
TAF
KIWA 102321Z 1100/1124 28004KT P6SM BKN250
     FM110400 12005KT P6SM SKC
     FM112100 29004KT P6SM FEW250
      AMD LTD TO CLD VIS AND WIND 1103/1113=



000
FTUS45 KPSR 102321
TAFBLH
TAF
KBLH 102321Z 1100/1124 35005KT P6SM FEW250
     FM110900 30004KT P6SM SKC=



000
FTUS45 KPSR 102321
TAFIWA
TAF
KIWA 102321Z 1100/1124 28004KT P6SM BKN250
     FM110400 12005KT P6SM SKC
     FM112100 29004KT P6SM FEW250
      AMD LTD TO CLD VIS AND WIND 1103/1113=



000
FTUS45 KPSR 102156 AAA
TAFIPL
TAF AMD
KIPL 102156Z 1022/1118 27004KT P6SM SCT250
     FM110200 VRB03KT P6SM SKC=



000
FTUS45 KPSR 102102 AAA
TAFPHX
TAF AMD
KPHX 102102Z 1021/1118 12004KT P6SM FEW220 SCT250
      TEMPO 1021/1023 22004KT
     FM102300 29005KT P6SM FEW220 SCT250
     FM110500 08005KT P6SM SKC=



000
FTUS45 KPSR 102102 AAA
TAFPHX
TAF AMD
KPHX 102102Z 1021/1118 12004KT P6SM FEW220 SCT250
      TEMPO 1021/1023 22004KT
     FM102300 29005KT P6SM FEW220 SCT250
     FM110500 08005KT P6SM SKC=



000
FTUS45 KPSR 101720
TAFIWA
TAF
KIWA 101720Z 1018/1118 11005KT P6SM FEW250
     FM102100 28004KT P6SM FEW250
     FM110400 12005KT P6SM SKC=



000
FTUS45 KPSR 101720
TAFPHX
TAF
KPHX 101720Z 1018/1118 12008G16KT P6SM FEW250
     FM110000 27004KT P6SM FEW250
     FM110500 08005KT P6SM SKC=



000
FTUS45 KPSR 101720
TAFIPL
TAF
KIPL 101720Z 1018/1118 12004KT P6SM FEW250
     FM110200 28004KT P6SM SKC=



000
FTUS45 KPSR 101720
TAFBLH
TAF
KBLH 101720Z 1018/1118 01009KT P6SM FEW250
     FM110000 30004KT P6SM SKC=



000
FTUS45 KPSR 101456 AAA
TAFPHX
TAF AMD
KPHX 101456Z 1015/1112 12008G16KT P6SM SKC
     FM102300 27004KT P6SM SKC
     FM110500 08005KT P6SM SKC=



000
FTUS45 KPSR 101456 AAA
TAFPHX
TAF AMD
KPHX 101456Z 1015/1112 12008G16KT P6SM SKC
     FM102300 27004KT P6SM SKC
     FM110500 08005KT P6SM SKC=



000
FTUS45 KPSR 101120
TAFPHX
TAF
KPHX 101120Z 1012/1112 07008KT P6SM SKC
      TEMPO 1012/1015 VRB03KT
     FM101500 07012G16KT P6SM SKC
     FM102300 27004KT P6SM SKC
     FM110500 08005KT P6SM SKC=



000
FTUS45 KPSR 101120
TAFIWA
TAF
KIWA 101120Z 1012/1112 11005KT P6SM SKC
     FM102100 28004KT P6SM SKC
     FM110400 12005KT P6SM SKC
      AMD LTD TO CLD VIS AND WIND TIL 101300=



000
FTUS45 KPSR 101120
TAFBLH
TAF
KBLH 101120Z 1012/1112 VRB03KT P6SM SKC
     FM102100 01009KT P6SM SKC
     FM110300 VRB04KT P6SM SKC=



000
FTUS45 KPSR 101120
TAFIPL
TAF
KIPL 101120Z 1012/1112 27005KT P6SM SKC
     FM101800 33004KT P6SM SKC
     FM110300 27004KT P6SM SKC=



000
FTUS45 KPSR 100847 AAA
TAFPHX
TAF AMD
KPHX 100847Z 1009/1106 07009KT P6SM SKC
      TEMPO 1015/1019 07012G16KT
     FM102200 27004KT P6SM SKC
     FM110300 VRB03KT P6SM SKC=



000
FTUS45 KPSR 100520
TAFPHX
TAF
KPHX 100520Z 1006/1106 08005KT P6SM SKC
     FM101700 09010KT P6SM SKC
     FM102200 27004KT P6SM SKC
     FM110300 VRB03KT P6SM SKC=



000
FTUS45 KPSR 100520
TAFIPL
TAF
KIPL 100520Z 1006/1106 27005KT P6SM SKC
     FM101800 33004KT P6SM SKC
     FM110000 VRB04KT P6SM SKC=



000
FTUS45 KPSR 100520
TAFBLH
TAF
KBLH 100520Z 1006/1106 34006KT P6SM SKC
     FM100900 VRB03KT P6SM SKC
     FM102100 35005KT P6SM SKC=



000
FTUS45 KPSR 100520
TAFIWA
TAF
KIWA 100520Z 1006/1106 08005KT P6SM SKC
     FM102200 28004KT P6SM SKC
     FM110300 12005KT P6SM SKC
      AMD LTD TO CLD VIS AND WIND TIL 101300=



000
FTUS45 KPSR 100239 AAA
TAFPHX
TAF AMD
KPHX 100239Z 1003/1024 VRB04KT P6SM SKC
     FM100400 06005KT P6SM SKC
     FM101700 09010KT P6SM SKC
     FM102200 27004KT P6SM SKC=



000
FTUS45 KPSR 092320
TAFIWA
TAF
KIWA 092320Z 1000/1024 34004KT P6SM SKC
     FM100200 09005KT P6SM SKC
     FM102200 28004KT P6SM SKC
      AMD LTD TO CLD VIS AND WIND 1003/1013=



000
FTUS45 KPSR 092320
TAFIPL
TAF
KIPL 092320Z 1000/1024 35004KT P6SM SKC
     FM100300 27005KT P6SM SKC
     FM101800 33004KT P6SM SKC=



000
FTUS45 KPSR 092320
TAFBLH
TAF
KBLH 092320Z 1000/1024 35010KT P6SM SKC
     FM100300 34006KT P6SM SKC
     FM100900 VRB03KT P6SM SKC=



000
FTUS45 KPSR 092320
TAFPHX
TAF
KPHX 092320Z 1000/1024 06006KT P6SM SKC
     FM101700 09010KT P6SM SKC
     FM102200 27004KT P6SM SKC=



000
FTUS45 KPSR 092047 AAB
TAFPHX
TAF AMD
KPHX 092047Z 0921/1018 05010G17KT P6SM SKC
     FM100000 10005KT P6SM SKC=



000
FTUS45 KPSR 092047 AAB
TAFPHX
TAF AMD
KPHX 092047Z 0921/1018 05010G17KT P6SM SKC
     FM100000 10005KT P6SM SKC=



000
FTUS45 KPSR 091955 AAA
TAFPHX
TAF AMD
KPHX 091955Z 0920/1018 07011KT P6SM SKC=



000
FTUS45 KPSR 091955 AAA
TAFPHX
TAF AMD
KPHX 091955Z 0920/1018 07011KT P6SM SKC=



000
FTUS45 KPSR 091722
TAFPHX
TAF
KPHX 091722Z 0918/1018 10006KT P6SM SKC=



000
FTUS45 KPSR 091722
TAFIWA
TAF
KIWA 091722Z 0918/1018 07006KT P6SM SKC=



000
FTUS45 KPSR 091722
TAFIPL
TAF
KIPL 091722Z 0918/1018 34005KT P6SM SKC
     FM100000 27005KT P6SM FEW250=



000
FTUS45 KPSR 091722
TAFBLH
TAF
KBLH 091722Z 0918/1018 36010KT P6SM SKC
     FM100300 VRB03KT P6SM FEW250=



000
FTUS45 KPSR 091722
TAFBLH
TAF
KBLH 091722Z 0918/1018 36010KT P6SM SKC
     FM100300 VRB03KT P6SM FEW250=



000
FTUS45 KPSR 091722
TAFIWA
TAF
KIWA 091722Z 0918/1018 07006KT P6SM SKC=



000
FTUS45 KPSR 091722
TAFIWA
TAF
KIWA 091722Z 0918/1018 07006KT P6SM SKC=



000
FTUS45 KPSR 091722
TAFPHX
TAF
KPHX 091722Z 0918/1018 10006KT P6SM SKC=



000
FTUS45 KPSR 091722
TAFIPL
TAF
KIPL 091722Z 0918/1018 34005KT P6SM SKC
     FM100000 27005KT P6SM FEW250=



000
FTUS45 KPSR 091434 AAB
TAFPHX
TAF AMD
KPHX 091434Z 0915/1012 07014KT P6SM SKC
     FM092100 07006KT P6SM SKC=



000
FTUS45 KPSR 091332 AAA
TAFPHX
TAF AMD
KPHX 091332Z 0914/1012 07010KT P6SM SKC WS020/07030KT
     FM091500 07014KT P6SM SKC
     FM092100 07006KT P6SM SKC=



000
FTUS45 KPSR 091120
TAFPHX
TAF
KPHX 091120Z 0912/1012 09004KT P6SM SKC WS020/07030KT
      TEMPO 0912/0915 VRB03KT
     FM091600 07012KT P6SM SKC
     FM092100 07006KT P6SM SKC=



000
FTUS45 KPSR 091120
TAFIPL
TAF
KIPL 091120Z 0912/1012 28008KT P6SM SKC
     FM091800 34005KT P6SM FEW250
     FM100300 27005KT P6SM FEW250=



000
FTUS45 KPSR 091120
TAFIWA
TAF
KIWA 091120Z 0912/1012 13005KT P6SM SKC WS020/08025KT
     FM091600 07008KT P6SM SKC
      TEMPO 0921/1001 02005KT
      AMD LTD TO CLD VIS AND WIND TIL 091300=



000
FTUS45 KPSR 091120
TAFBLH
TAF
KBLH 091120Z 0912/1012 36010KT P6SM SKC
      TEMPO 0912/0916 VRB04KT
     FM100300 VRB05KT P6SM FEW250=



000
FTUS45 KPSR 091120
TAFIWA
TAF
KIWA 091120Z 0912/1012 13005KT P6SM SKC WS020/08025KT
     FM091600 07008KT P6SM SKC
      TEMPO 0921/1001 02005KT
      AMD LTD TO CLD VIS AND WIND TIL 091300=



000
FTUS45 KPSR 091120
TAFBLH
TAF
KBLH 091120Z 0912/1012 36010KT P6SM SKC
      TEMPO 0912/0916 VRB04KT
     FM100300 VRB05KT P6SM FEW250=



000
FTUS45 KPSR 090839 AAA
TAFPHX
TAF AMD
KPHX 090839Z 0909/1006 09005KT P6SM SKC
      TEMPO 0911/0915 VRB03KT
     FM091700 07012KT P6SM SKC
     FM092100 07007KT P6SM SKC=



000
FTUS45 KPSR 090839 AAA
TAFPHX
TAF AMD
KPHX 090839Z 0909/1006 09005KT P6SM SKC
      TEMPO 0911/0915 VRB03KT
     FM091700 07012KT P6SM SKC
     FM092100 07007KT P6SM SKC=



000
FTUS45 KPSR 090804 AAA
TAFBLH
TAF AMD
KBLH 090804Z 0908/1006 33006KT P6SM SKC
     FM091800 VRB04KT P6SM FEW250=



    US Dept of Commerce
    National Oceanic and Atmospheric Administration
    National Weather Service
    1325 East West Highway
    Silver Spring, MD 20910
    Page Author: NWS Internet Services Team
Disclaimer
Information Quality
Credits
Glossary
Privacy Policy
Freedom of Information Act (FOIA)
About Us
Career Opportunities